Hollywood, FL

8:53 PM EDT on April 01, 2015 (GMT -0400)
Fort Lauderdale-Hollywood International | | Change Station
CLOSE
Current Station
Airport
Location: Ft Lauderdale,
Elevation: 10 ft
Nearby Weather Stations

Elev 10 ft 26.07 °N, 80.15 °W | Updated 1 hour ago

Clear
Clear
75 °F
Feels Like 75 °F
N
10
Wind Variable Wind from SSE

Today
High -- | Low -- °F
--% Chance of Precip.
Yesterday
High -- | Low -- °F
Precip. -- in
7:12 AM 7:37 PM
Waxing Gibbous, 95% visible
Pressure 30.09 in
Visibility 10.0 miles
Clouds Clear
Dew Point 61 °F
Humidity 62%
Rainfall 0.00 in
Snow Depth Not available.
UV 0 out of 12
Pollen 8.30 out of 12
Air Quality Not available.
Flu Activity Not available.
METAR KFLL 012353Z 16009KT 10SM CLR 24/16 A3009 RMK AO2 SLP190 T02390161 10289 20239 53012

More Conditions Fewer Conditions

Pressure 30.09 in
Visibility 10.0 miles
Clouds Clear
Dew Point 61 °F
Humidity 62%
Rainfall 0.00 in
Snow Depth Not available.
UV 0 out of 12
Pollen 8.30 out of 12
Air Quality Not available.
Flu Activity Not available.
METAR KFLL 012353Z 16009KT 10SM CLR 24/16 A3009 RMK AO2 SLP190 T02390161 10289 20239 53012

More Conditions Fewer Conditions

10-Day Weather Forecast

Almanac

Astronomy

Apr. 01, 2015 Rise Set
Actual Time
Civil Twilight
Nautical Twilight
Astronomical Twilight
Moon
Length of Visible Light
Length of Day
Tomorrow will be .
, % of the Moon is Illuminated

Today's Extremes

State Highs State Lows

Community

WunderPhotos

Upload Photos

1,810,136 photos uploaded!

WunderBlogs® & News

Nearby

Air Quality

  Air Quality AQ Index Pollutant
Not available.

Snow Depth

Station Depth Elevation

Earthquake Activity

City Distance Mag. Time & Date
Minimum magnitude displayed is 2.5.

Coastal Water Temperatures

Place Temperature

Stations

Nearby Weather Stations

Station Location Temp. Windchill Dew Point Humidity Wind Precip. Elev Updated Type